sensor_id;sensor_type;location;lat;lon;timestamp;P1;durP1;ratioP1;P2;durP2;ratioP2
4365;SDS011;2196;47.422;9.656;2023-11-19T00:01:04;0.50;;;0.20;;
4365;SDS011;2196;47.422;9.656;2023-11-19T00:03:31;1.20;;;0.30;;
4365;SDS011;2196;47.422;9.656;2023-11-19T00:06:01;0.93;;;0.10;;
4365;SDS011;2196;47.422;9.656;2023-11-19T00:08:29;0.10;;;0.10;;
4365;SDS011;2196;47.422;9.656;2023-11-19T00:10:56;1.13;;;0.10;;
4365;SDS011;2196;47.422;9.656;2023-11-19T00:13:23;0.67;;;0.13;;
4365;SDS011;2196;47.422;9.656;2023-11-19T00:15:51;1.27;;;0.20;;
4365;SDS011;2196;47.422;9.656;2023-11-19T00:18:18;0.77;;;0.30;;
4365;SDS011;2196;47.422;9.656;2023-11-19T00:20:45;0.40;;;0.10;;
4365;SDS011;2196;47.422;9.656;2023-11-19T00:23:14;0.20;;;0.20;;
4365;SDS011;2196;47.422;9.656;2023-11-19T00:25:41;0.60;;;0.20;;
4365;SDS011;2196;47.422;9.656;2023-11-19T00:28:08;1.30;;;0.20;;
4365;SDS011;2196;47.422;9.656;2023-11-19T00:30:35;0.30;;;0.20;;
4365;SDS011;2196;47.422;9.656;2023-11-19T00:33:02;0.40;;;0.40;;
4365;SDS011;2196;47.422;9.656;2023-11-19T00:35:29;0.10;;;0.10;;
4365;SDS011;2196;47.422;9.656;2023-11-19T00:37:56;0.33;;;0.30;;
4365;SDS011;2196;47.422;9.656;2023-11-19T00:40:25;3.20;;;0.10;;
4365;SDS011;2196;47.422;9.656;2023-11-19T00:42:52;0.50;;;0.10;;
4365;SDS011;2196;47.422;9.656;2023-11-19T00:45:19;0.20;;;0.10;;
4365;SDS011;2196;47.422;9.656;2023-11-19T00:47:46;0.10;;;0.10;;
4365;SDS011;2196;47.422;9.656;2023-11-19T00:50:13;0.10;;;0.10;;
4365;SDS011;2196;47.422;9.656;2023-11-19T00:52:40;0.27;;;0.20;;
4365;SDS011;2196;47.422;9.656;2023-11-19T00:55:08;1.50;;;0.30;;
4365;SDS011;2196;47.422;9.656;2023-11-19T00:57:38;0.27;;;0.27;;
4365;SDS011;2196;47.422;9.656;2023-11-19T01:00:05;0.40;;;0.20;;
4365;SDS011;2196;47.422;9.656;2023-11-19T01:02:43;0.20;;;0.20;;
4365;SDS011;2196;47.422;9.656;2023-11-19T01:05:10;0.50;;;0.50;;
4365;SDS011;2196;47.422;9.656;2023-11-19T01:07:39;0.20;;;0.10;;
4365;SDS011;2196;47.422;9.656;2023-11-19T01:10:06;0.20;;;0.20;;
4365;SDS011;2196;47.422;9.656;2023-11-19T01:12:35;0.20;;;0.20;;
4365;SDS011;2196;47.422;9.656;2023-11-19T01:15:04;0.10;;;0.10;;
4365;SDS011;2196;47.422;9.656;2023-11-19T01:17:32;0.63;;;0.10;;
4365;SDS011;2196;47.422;9.656;2023-11-19T01:19:59;0.20;;;0.17;;
4365;SDS011;2196;47.422;9.656;2023-11-19T01:22:27;2.30;;;0.30;;
4365;SDS011;2196;47.422;9.656;2023-11-19T01:24:54;0.30;;;0.10;;
4365;SDS011;2196;47.422;9.656;2023-11-19T01:27:21;2.30;;;0.20;;
4365;SDS011;2196;47.422;9.656;2023-11-19T01:29:48;0.10;;;0.10;;
4365;SDS011;2196;47.422;9.656;2023-11-19T01:32:16;1.50;;;0.20;;
4365;SDS011;2196;47.422;9.656;2023-11-19T01:34:43;0.23;;;0.23;;
4365;SDS011;2196;47.422;9.656;2023-11-19T01:37:10;0.40;;;0.10;;
4365;SDS011;2196;47.422;9.656;2023-11-19T01:39:39;0.10;;;0.10;;
4365;SDS011;2196;47.422;9.656;2023-11-19T01:42:09;0.30;;;0.20;;
4365;SDS011;2196;47.422;9.656;2023-11-19T01:44:37;0.30;;;0.30;;
4365;SDS011;2196;47.422;9.656;2023-11-19T01:47:04;0.83;;;0.30;;
4365;SDS011;2196;47.422;9.656;2023-11-19T01:49:33;0.20;;;0.20;;
4365;SDS011;2196;47.422;9.656;2023-11-19T01:52:00;1.13;;;0.30;;
4365;SDS011;2196;47.422;9.656;2023-11-19T01:54:27;0.20;;;0.20;;
4365;SDS011;2196;47.422;9.656;2023-11-19T01:56:54;0.20;;;0.20;;
4365;SDS011;2196;47.422;9.656;2023-11-19T01:59:23;0.27;;;0.27;;
4365;SDS011;2196;47.422;9.656;2023-11-19T02:01:52;0.30;;;0.23;;
4365;SDS011;2196;47.422;9.656;2023-11-19T02:04:20;0.20;;;0.20;;
4365;SDS011;2196;47.422;9.656;2023-11-19T02:06:49;0.10;;;0.10;;
4365;SDS011;2196;47.422;9.656;2023-11-19T02:09:18;0.10;;;0.10;;
4365;SDS011;2196;47.422;9.656;2023-11-19T02:11:46;1.93;;;0.20;;
4365;SDS011;2196;47.422;9.656;2023-11-19T02:14:16;0.30;;;0.30;;
4365;SDS011;2196;47.422;9.656;2023-11-19T02:16:43;0.30;;;0.20;;
4365;SDS011;2196;47.422;9.656;2023-11-19T02:19:10;0.20;;;0.20;;
4365;SDS011;2196;47.422;9.656;2023-11-19T02:21:38;0.17;;;0.17;;
4365;SDS011;2196;47.422;9.656;2023-11-19T02:24:08;0.37;;;0.10;;
4365;SDS011;2196;47.422;9.656;2023-11-19T02:26:39;1.30;;;0.20;;
4365;SDS011;2196;47.422;9.656;2023-11-19T02:29:12;0.30;;;0.20;;
4365;SDS011;2196;47.422;9.656;2023-11-19T02:31:39;0.20;;;0.20;;
4365;SDS011;2196;47.422;9.656;2023-11-19T02:34:06;0.10;;;0.10;;
4365;SDS011;2196;47.422;9.656;2023-11-19T02:36:33;1.13;;;0.30;;
4365;SDS011;2196;47.422;9.656;2023-11-19T02:39:00;0.13;;;0.13;;
4365;SDS011;2196;47.422;9.656;2023-11-19T02:41:27;0.77;;;0.63;;
4365;SDS011;2196;47.422;9.656;2023-11-19T02:43:54;0.30;;;0.20;;
4365;SDS011;2196;47.422;9.656;2023-11-19T02:46:22;1.37;;;0.20;;
4365;SDS011;2196;47.422;9.656;2023-11-19T02:48:49;0.10;;;0.10;;
4365;SDS011;2196;47.422;9.656;2023-11-19T02:51:17;0.10;;;0.10;;
4365;SDS011;2196;47.422;9.656;2023-11-19T02:53:44;0.10;;;0.10;;
4365;SDS011;2196;47.422;9.656;2023-11-19T02:56:13;1.70;;;0.27;;
4365;SDS011;2196;47.422;9.656;2023-11-19T02:58:45;0.83;;;0.20;;
4365;SDS011;2196;47.422;9.656;2023-11-19T03:01:13;0.20;;;0.20;;
4365;SDS011;2196;47.422;9.656;2023-11-19T03:03:50;0.67;;;0.20;;
4365;SDS011;2196;47.422;9.656;2023-11-19T03:06:19;0.63;;;0.10;;
4365;SDS011;2196;47.422;9.656;2023-11-19T03:08:47;0.10;;;0.10;;
4365;SDS011;2196;47.422;9.656;2023-11-19T03:11:14;0.20;;;0.20;;
4365;SDS011;2196;47.422;9.656;2023-11-19T03:13:41;0.20;;;0.20;;
4365;SDS011;2196;47.422;9.656;2023-11-19T03:16:08;1.23;;;0.17;;
4365;SDS011;2196;47.422;9.656;2023-11-19T03:18:36;0.27;;;0.10;;
4365;SDS011;2196;47.422;9.656;2023-11-19T03:21:05;0.47;;;0.47;;
4365;SDS011;2196;47.422;9.656;2023-11-19T03:23:33;1.03;;;0.30;;
4365;SDS011;2196;47.422;9.656;2023-11-19T03:26:00;0.10;;;0.10;;
4365;SDS011;2196;47.422;9.656;2023-11-19T03:28:30;0.20;;;0.10;;
4365;SDS011;2196;47.422;9.656;2023-11-19T03:30:57;0.20;;;0.20;;
4365;SDS011;2196;47.422;9.656;2023-11-19T03:33:24;0.10;;;0.10;;
4365;SDS011;2196;47.422;9.656;2023-11-19T03:35:52;0.47;;;0.10;;
4365;SDS011;2196;47.422;9.656;2023-11-19T03:38:22;0.50;;;0.30;;
4365;SDS011;2196;47.422;9.656;2023-11-19T03:40:49;0.27;;;0.27;;
4365;SDS011;2196;47.422;9.656;2023-11-19T03:43:16;0.10;;;0.10;;
4365;SDS011;2196;47.422;9.656;2023-11-19T03:45:45;1.27;;;0.40;;
4365;SDS011;2196;47.422;9.656;2023-11-19T03:48:12;0.20;;;0.20;;
4365;SDS011;2196;47.422;9.656;2023-11-19T03:50:41;0.20;;;0.20;;
4365;SDS011;2196;47.422;9.656;2023-11-19T03:53:08;0.23;;;0.20;;
4365;SDS011;2196;47.422;9.656;2023-11-19T03:55:36;1.13;;;0.27;;
4365;SDS011;2196;47.422;9.656;2023-11-19T03:58:03;5.87;;;0.30;;
4365;SDS011;2196;47.422;9.656;2023-11-19T04:00:30;0.50;;;0.20;;
4365;SDS011;2196;47.422;9.656;2023-11-19T04:02:57;0.17;;;0.17;;
4365;SDS011;2196;47.422;9.656;2023-11-19T04:05:24;0.30;;;0.20;;
4365;SDS011;2196;47.422;9.656;2023-11-19T04:07:50;1.07;;;0.20;;
4365;SDS011;2196;47.422;9.656;2023-11-19T04:10:17;0.20;;;0.20;;
4365;SDS011;2196;47.422;9.656;2023-11-19T04:12:46;1.37;;;0.23;;
4365;SDS011;2196;47.422;9.656;2023-11-19T04:15:14;0.20;;;0.10;;
4365;SDS011;2196;47.422;9.656;2023-11-19T04:17:41;0.57;;;0.17;;
4365;SDS011;2196;47.422;9.656;2023-11-19T04:20:08;3.67;;;1.57;;
4365;SDS011;2196;47.422;9.656;2023-11-19T04:22:38;6.43;;;1.43;;
4365;SDS011;2196;47.422;9.656;2023-11-19T04:25:06;1.70;;;1.00;;
4365;SDS011;2196;47.422;9.656;2023-11-19T04:27:33;0.67;;;0.40;;
4365;SDS011;2196;47.422;9.656;2023-11-19T04:30:02;0.40;;;0.40;;
4365;SDS011;2196;47.422;9.656;2023-11-19T04:32:29;2.00;;;0.20;;
4365;SDS011;2196;47.422;9.656;2023-11-19T04:34:56;0.83;;;0.30;;
4365;SDS011;2196;47.422;9.656;2023-11-19T04:37:23;0.17;;;0.17;;
4365;SDS011;2196;47.422;9.656;2023-11-19T04:39:50;0.60;;;0.40;;
4365;SDS011;2196;47.422;9.656;2023-11-19T04:42:17;0.33;;;0.33;;
4365;SDS011;2196;47.422;9.656;2023-11-19T04:44:44;0.63;;;0.57;;
4365;SDS011;2196;47.422;9.656;2023-11-19T04:47:13;0.30;;;0.30;;
4365;SDS011;2196;47.422;9.656;2023-11-19T04:49:40;2.73;;;0.80;;
4365;SDS011;2196;47.422;9.656;2023-11-19T04:52:08;2.80;;;1.33;;
4365;SDS011;2196;47.422;9.656;2023-11-19T04:54:40;2.60;;;1.47;;
4365;SDS011;2196;47.422;9.656;2023-11-19T04:57:08;4.60;;;0.77;;
4365;SDS011;2196;47.422;9.656;2023-11-19T04:59:36;0.43;;;0.43;;
4365;SDS011;2196;47.422;9.656;2023-11-19T05:02:03;0.97;;;0.30;;
4365;SDS011;2196;47.422;9.656;2023-11-19T05:04:31;0.20;;;0.20;;
4365;SDS011;2196;47.422;9.656;2023-11-19T05:06:58;0.43;;;0.43;;
4365;SDS011;2196;47.422;9.656;2023-11-19T05:09:25;1.47;;;0.37;;
4365;SDS011;2196;47.422;9.656;2023-11-19T05:11:52;1.10;;;0.60;;
4365;SDS011;2196;47.422;9.656;2023-11-19T05:14:19;0.40;;;0.40;;
4365;SDS011;2196;47.422;9.656;2023-11-19T05:16:47;0.87;;;0.33;;
4365;SDS011;2196;47.422;9.656;2023-11-19T05:19:14;0.53;;;0.50;;
4365;SDS011;2196;47.422;9.656;2023-11-19T05:21:42;0.60;;;0.60;;
4365;SDS011;2196;47.422;9.656;2023-11-19T05:24:10;0.30;;;0.30;;
4365;SDS011;2196;47.422;9.656;2023-11-19T05:26:38;0.20;;;0.20;;
4365;SDS011;2196;47.422;9.656;2023-11-19T05:29:05;1.53;;;0.40;;
4365;SDS011;2196;47.422;9.656;2023-11-19T05:31:33;0.43;;;0.30;;
4365;SDS011;2196;47.422;9.656;2023-11-19T05:34:00;0.63;;;0.20;;
4365;SDS011;2196;47.422;9.656;2023-11-19T05:36:27;0.20;;;0.20;;
4365;SDS011;2196;47.422;9.656;2023-11-19T05:38:56;0.53;;;0.30;;
4365;SDS011;2196;47.422;9.656;2023-11-19T05:41:23;0.50;;;0.50;;
4365;SDS011;2196;47.422;9.656;2023-11-19T05:43:50;0.33;;;0.30;;
4365;SDS011;2196;47.422;9.656;2023-11-19T05:46:17;0.30;;;0.30;;
4365;SDS011;2196;47.422;9.656;2023-11-19T05:48:44;0.33;;;0.33;;
4365;SDS011;2196;47.422;9.656;2023-11-19T05:51:12;0.67;;;0.30;;
4365;SDS011;2196;47.422;9.656;2023-11-19T05:53:40;1.20;;;0.47;;
4365;SDS011;2196;47.422;9.656;2023-11-19T05:56:08;1.13;;;0.67;;
4365;SDS011;2196;47.422;9.656;2023-11-19T05:58:35;0.50;;;0.30;;
4365;SDS011;2196;47.422;9.656;2023-11-19T06:01:02;1.70;;;0.87;;
4365;SDS011;2196;47.422;9.656;2023-11-19T06:03:32;0.53;;;0.53;;
4365;SDS011;2196;47.422;9.656;2023-11-19T06:05:59;1.33;;;0.40;;
4365;SDS011;2196;47.422;9.656;2023-11-19T06:08:26;0.60;;;0.60;;
4365;SDS011;2196;47.422;9.656;2023-11-19T06:10:53;0.47;;;0.10;;
4365;SDS011;2196;47.422;9.656;2023-11-19T06:13:21;0.30;;;0.20;;
4365;SDS011;2196;47.422;9.656;2023-11-19T06:15:49;1.07;;;0.30;;
4365;SDS011;2196;47.422;9.656;2023-11-19T06:18:16;0.70;;;0.70;;
4365;SDS011;2196;47.422;9.656;2023-11-19T06:20:45;1.63;;;0.93;;
4365;SDS011;2196;47.422;9.656;2023-11-19T06:23:12;0.50;;;0.50;;
4365;SDS011;2196;47.422;9.656;2023-11-19T06:25:39;0.40;;;0.40;;
4365;SDS011;2196;47.422;9.656;2023-11-19T06:28:06;0.43;;;0.43;;
4365;SDS011;2196;47.422;9.656;2023-11-19T06:30:35;0.60;;;0.60;;
4365;SDS011;2196;47.422;9.656;2023-11-19T06:33:02;1.60;;;1.50;;
4365;SDS011;2196;47.422;9.656;2023-11-19T06:35:29;1.77;;;1.67;;
4365;SDS011;2196;47.422;9.656;2023-11-19T06:38:01;0.80;;;0.80;;
4365;SDS011;2196;47.422;9.656;2023-11-19T06:40:29;0.40;;;0.40;;
4365;SDS011;2196;47.422;9.656;2023-11-19T06:42:56;0.90;;;0.83;;
4365;SDS011;2196;47.422;9.656;2023-11-19T06:45:23;0.43;;;0.43;;
4365;SDS011;2196;47.422;9.656;2023-11-19T06:47:52;0.83;;;0.83;;
4365;SDS011;2196;47.422;9.656;2023-11-19T06:50:19;1.47;;;1.37;;
4365;SDS011;2196;47.422;9.656;2023-11-19T06:52:46;1.40;;;1.30;;
4365;SDS011;2196;47.422;9.656;2023-11-19T06:55:13;0.87;;;0.87;;
4365;SDS011;2196;47.422;9.656;2023-11-19T06:57:41;1.00;;;1.00;;
4365;SDS011;2196;47.422;9.656;2023-11-19T07:00:08;0.70;;;0.70;;
4365;SDS011;2196;47.422;9.656;2023-11-19T07:02:36;0.80;;;0.80;;
4365;SDS011;2196;47.422;9.656;2023-11-19T07:05:05;1.33;;;1.20;;
4365;SDS011;2196;47.422;9.656;2023-11-19T07:07:33;2.47;;;0.63;;
4365;SDS011;2196;47.422;9.656;2023-11-19T07:10:00;1.03;;;0.77;;
4365;SDS011;2196;47.422;9.656;2023-11-19T07:12:29;0.70;;;0.70;;
4365;SDS011;2196;47.422;9.656;2023-11-19T07:14:56;2.00;;;0.60;;
4365;SDS011;2196;47.422;9.656;2023-11-19T07:17:23;0.83;;;0.70;;
4365;SDS011;2196;47.422;9.656;2023-11-19T07:19:50;1.33;;;1.20;;
4365;SDS011;2196;47.422;9.656;2023-11-19T07:22:18;0.60;;;0.60;;
4365;SDS011;2196;47.422;9.656;2023-11-19T07:24:45;0.63;;;0.37;;
4365;SDS011;2196;47.422;9.656;2023-11-19T07:27:12;1.60;;;0.50;;
4365;SDS011;2196;47.422;9.656;2023-11-19T07:29:40;0.50;;;0.50;;
4365;SDS011;2196;47.422;9.656;2023-11-19T07:32:09;0.93;;;0.40;;
4365;SDS011;2196;47.422;9.656;2023-11-19T07:34:37;2.10;;;0.83;;
4365;SDS011;2196;47.422;9.656;2023-11-19T07:37:04;0.50;;;0.33;;
4365;SDS011;2196;47.422;9.656;2023-11-19T07:39:32;0.57;;;0.57;;
4365;SDS011;2196;47.422;9.656;2023-11-19T07:42:00;0.53;;;0.53;;
4365;SDS011;2196;47.422;9.656;2023-11-19T07:44:27;1.27;;;0.83;;
4365;SDS011;2196;47.422;9.656;2023-11-19T07:46:54;1.03;;;0.63;;
4365;SDS011;2196;47.422;9.656;2023-11-19T07:49:21;1.10;;;0.40;;
4365;SDS011;2196;47.422;9.656;2023-11-19T07:51:48;1.23;;;0.70;;
4365;SDS011;2196;47.422;9.656;2023-11-19T07:54:15;0.60;;;0.60;;
4365;SDS011;2196;47.422;9.656;2023-11-19T07:56:43;0.60;;;0.60;;
4365;SDS011;2196;47.422;9.656;2023-11-19T07:59:10;0.50;;;0.50;;
4365;SDS011;2196;47.422;9.656;2023-11-19T08:01:37;0.90;;;0.67;;
4365;SDS011;2196;47.422;9.656;2023-11-19T08:04:04;0.83;;;0.70;;
4365;SDS011;2196;47.422;9.656;2023-11-19T08:06:32;0.60;;;0.60;;
4365;SDS011;2196;47.422;9.656;2023-11-19T08:08:59;1.37;;;1.17;;
4365;SDS011;2196;47.422;9.656;2023-11-19T08:11:26;0.70;;;0.70;;
4365;SDS011;2196;47.422;9.656;2023-11-19T08:13:55;3.50;;;1.93;;
4365;SDS011;2196;47.422;9.656;2023-11-19T08:16:22;1.80;;;1.37;;
4365;SDS011;2196;47.422;9.656;2023-11-19T08:18:49;0.93;;;0.93;;
4365;SDS011;2196;47.422;9.656;2023-11-19T08:21:16;1.50;;;1.07;;
4365;SDS011;2196;47.422;9.656;2023-11-19T08:23:43;1.23;;;0.90;;
4365;SDS011;2196;47.422;9.656;2023-11-19T08:26:09;1.17;;;1.13;;
4365;SDS011;2196;47.422;9.656;2023-11-19T08:28:37;1.30;;;1.30;;
4365;SDS011;2196;47.422;9.656;2023-11-19T08:31:05;0.70;;;0.70;;
4365;SDS011;2196;47.422;9.656;2023-11-19T08:33:32;1.57;;;0.87;;
4365;SDS011;2196;47.422;9.656;2023-11-19T08:35:59;0.77;;;0.60;;
4365;SDS011;2196;47.422;9.656;2023-11-19T08:38:29;1.77;;;0.60;;
4365;SDS011;2196;47.422;9.656;2023-11-19T08:40:56;0.70;;;0.70;;
4365;SDS011;2196;47.422;9.656;2023-11-19T08:43:25;1.23;;;0.80;;
4365;SDS011;2196;47.422;9.656;2023-11-19T08:45:52;0.50;;;0.50;;
4365;SDS011;2196;47.422;9.656;2023-11-19T08:48:20;1.67;;;0.70;;
4365;SDS011;2196;47.422;9.656;2023-11-19T08:50:47;1.33;;;0.80;;
4365;SDS011;2196;47.422;9.656;2023-11-19T08:53:14;1.07;;;1.03;;
4365;SDS011;2196;47.422;9.656;2023-11-19T08:55:41;0.90;;;0.90;;
4365;SDS011;2196;47.422;9.656;2023-11-19T08:58:08;0.97;;;0.97;;
4365;SDS011;2196;47.422;9.656;2023-11-19T09:00:35;0.93;;;0.93;;
4365;SDS011;2196;47.422;9.656;2023-11-19T09:03:02;1.73;;;1.63;;
4365;SDS011;2196;47.422;9.656;2023-11-19T09:05:30;2.50;;;1.83;;
4365;SDS011;2196;47.422;9.656;2023-11-19T09:07:57;1.87;;;1.67;;
4365;SDS011;2196;47.422;9.656;2023-11-19T09:10:24;1.63;;;1.53;;
4365;SDS011;2196;47.422;9.656;2023-11-19T09:12:52;2.23;;;2.00;;
4365;SDS011;2196;47.422;9.656;2023-11-19T09:15:19;2.40;;;2.30;;
4365;SDS011;2196;47.422;9.656;2023-11-19T09:17:46;2.70;;;1.87;;
4365;SDS011;2196;47.422;9.656;2023-11-19T09:20:12;4.13;;;2.43;;
4365;SDS011;2196;47.422;9.656;2023-11-19T09:22:41;1.60;;;1.50;;
4365;SDS011;2196;47.422;9.656;2023-11-19T09:25:08;1.40;;;1.40;;
4365;SDS011;2196;47.422;9.656;2023-11-19T09:27:35;2.63;;;0.70;;
4365;SDS011;2196;47.422;9.656;2023-11-19T09:30:03;1.40;;;0.80;;
4365;SDS011;2196;47.422;9.656;2023-11-19T09:32:30;0.60;;;0.60;;
4365;SDS011;2196;47.422;9.656;2023-11-19T09:34:57;0.70;;;0.70;;
4365;SDS011;2196;47.422;9.656;2023-11-19T09:37:25;2.00;;;0.90;;
4365;SDS011;2196;47.422;9.656;2023-11-19T09:39:54;1.90;;;0.60;;
4365;SDS011;2196;47.422;9.656;2023-11-19T09:42:21;0.87;;;0.70;;
4365;SDS011;2196;47.422;9.656;2023-11-19T09:44:50;1.07;;;0.60;;
4365;SDS011;2196;47.422;9.656;2023-11-19T09:47:18;0.60;;;0.60;;
4365;SDS011;2196;47.422;9.656;2023-11-19T09:49:46;0.83;;;0.50;;
4365;SDS011;2196;47.422;9.656;2023-11-19T09:52:14;0.90;;;0.57;;
4365;SDS011;2196;47.422;9.656;2023-11-19T09:54:41;0.60;;;0.60;;
4365;SDS011;2196;47.422;9.656;2023-11-19T09:57:09;0.87;;;0.60;;
4365;SDS011;2196;47.422;9.656;2023-11-19T09:59:38;1.07;;;0.77;;
4365;SDS011;2196;47.422;9.656;2023-11-19T10:02:06;0.87;;;0.80;;
4365;SDS011;2196;47.422;9.656;2023-11-19T10:04:33;0.60;;;0.60;;
4365;SDS011;2196;47.422;9.656;2023-11-19T10:07:02;0.80;;;0.80;;
4365;SDS011;2196;47.422;9.656;2023-11-19T10:09:29;0.67;;;0.67;;
4365;SDS011;2196;47.422;9.656;2023-11-19T10:11:56;0.60;;;0.60;;
4365;SDS011;2196;47.422;9.656;2023-11-19T10:14:25;0.63;;;0.63;;
4365;SDS011;2196;47.422;9.656;2023-11-19T10:16:52;1.63;;;0.77;;
4365;SDS011;2196;47.422;9.656;2023-11-19T10:19:21;1.00;;;1.00;;
4365;SDS011;2196;47.422;9.656;2023-11-19T10:21:48;0.40;;;0.40;;
4365;SDS011;2196;47.422;9.656;2023-11-19T10:24:14;0.67;;;0.67;;
4365;SDS011;2196;47.422;9.656;2023-11-19T10:26:41;0.60;;;0.60;;
4365;SDS011;2196;47.422;9.656;2023-11-19T10:29:08;0.87;;;0.80;;
4365;SDS011;2196;47.422;9.656;2023-11-19T10:31:40;0.70;;;0.70;;
4365;SDS011;2196;47.422;9.656;2023-11-19T10:34:13;1.10;;;1.00;;
4365;SDS011;2196;47.422;9.656;2023-11-19T10:36:51;0.70;;;0.70;;
4365;SDS011;2196;47.422;9.656;2023-11-19T10:39:18;1.93;;;0.77;;
4365;SDS011;2196;47.422;9.656;2023-11-19T10:41:46;1.23;;;0.70;;
4365;SDS011;2196;47.422;9.656;2023-11-19T10:44:26;1.37;;;0.80;;
4365;SDS011;2196;47.422;9.656;2023-11-19T10:47:00;0.97;;;0.97;;
4365;SDS011;2196;47.422;9.656;2023-11-19T10:49:27;0.80;;;0.80;;
4365;SDS011;2196;47.422;9.656;2023-11-19T10:51:54;0.57;;;0.57;;
4365;SDS011;2196;47.422;9.656;2023-11-19T10:54:23;1.97;;;1.33;;
4365;SDS011;2196;47.422;9.656;2023-11-19T10:56:53;0.80;;;0.73;;
4365;SDS011;2196;47.422;9.656;2023-11-19T10:59:23;0.83;;;0.80;;
4365;SDS011;2196;47.422;9.656;2023-11-19T11:01:52;0.90;;;0.90;;
4365;SDS011;2196;47.422;9.656;2023-11-19T11:04:24;0.50;;;0.50;;
4365;SDS011;2196;47.422;9.656;2023-11-19T11:06:53;0.60;;;0.60;;
4365;SDS011;2196;47.422;9.656;2023-11-19T11:09:23;0.60;;;0.60;;
4365;SDS011;2196;47.422;9.656;2023-11-19T11:11:52;2.30;;;0.80;;
4365;SDS011;2196;47.422;9.656;2023-11-19T11:14:22;0.53;;;0.53;;
4365;SDS011;2196;47.422;9.656;2023-11-19T11:16:52;0.90;;;0.90;;
4365;SDS011;2196;47.422;9.656;2023-11-19T11:19:20;0.60;;;0.50;;
4365;SDS011;2196;47.422;9.656;2023-11-19T11:21:51;0.93;;;0.90;;
4365;SDS011;2196;47.422;9.656;2023-11-19T11:24:24;0.50;;;0.50;;
4365;SDS011;2196;47.422;9.656;2023-11-19T11:27:11;1.93;;;1.33;;
4365;SDS011;2196;47.422;9.656;2023-11-19T11:30:04;0.40;;;0.40;;
4365;SDS011;2196;47.422;9.656;2023-11-19T11:32:41;0.70;;;0.70;;
4365;SDS011;2196;47.422;9.656;2023-11-19T11:35:22;1.17;;;0.87;;
4365;SDS011;2196;47.422;9.656;2023-11-19T11:38:00;0.70;;;0.70;;
4365;SDS011;2196;47.422;9.656;2023-11-19T11:40:30;0.70;;;0.70;;
4365;SDS011;2196;47.422;9.656;2023-11-19T11:42:57;2.33;;;0.80;;
4365;SDS011;2196;47.422;9.656;2023-11-19T11:48:11;0.80;;;0.80;;
4365;SDS011;2196;47.422;9.656;2023-11-19T11:50:48;0.47;;;0.47;;
4365;SDS011;2196;47.422;9.656;2023-11-19T11:53:18;1.60;;;0.80;;
4365;SDS011;2196;47.422;9.656;2023-11-19T11:56:00;0.60;;;0.60;;
4365;SDS011;2196;47.422;9.656;2023-11-19T11:58:32;0.80;;;0.80;;
4365;SDS011;2196;47.422;9.656;2023-11-19T12:01:01;0.50;;;0.50;;
4365;SDS011;2196;47.422;9.656;2023-11-19T12:03:30;0.53;;;0.53;;
4365;SDS011;2196;47.422;9.656;2023-11-19T12:05:58;1.90;;;0.77;;
4365;SDS011;2196;47.422;9.656;2023-11-19T12:08:27;1.40;;;1.30;;
4365;SDS011;2196;47.422;9.656;2023-11-19T12:10:56;1.17;;;1.10;;
4365;SDS011;2196;47.422;9.656;2023-11-19T12:13:28;0.50;;;0.50;;
4365;SDS011;2196;47.422;9.656;2023-11-19T12:16:10;1.13;;;0.90;;
4365;SDS011;2196;47.422;9.656;2023-11-19T12:18:40;2.43;;;0.70;;
4365;SDS011;2196;47.422;9.656;2023-11-19T12:21:08;0.70;;;0.70;;
4365;SDS011;2196;47.422;9.656;2023-11-19T12:23:45;0.90;;;0.90;;
4365;SDS011;2196;47.422;9.656;2023-11-19T12:26:30;0.90;;;0.90;;
4365;SDS011;2196;47.422;9.656;2023-11-19T12:29:02;0.60;;;0.60;;
4365;SDS011;2196;47.422;9.656;2023-11-19T12:31:33;1.00;;;0.77;;
4365;SDS011;2196;47.422;9.656;2023-11-19T12:34:07;1.37;;;1.37;;
4365;SDS011;2196;47.422;9.656;2023-11-19T12:36:39;1.70;;;1.60;;
4365;SDS011;2196;47.422;9.656;2023-11-19T12:39:08;1.03;;;0.70;;
4365;SDS011;2196;47.422;9.656;2023-11-19T12:41:50;1.07;;;0.80;;
4365;SDS011;2196;47.422;9.656;2023-11-19T12:44:18;0.60;;;0.60;;
4365;SDS011;2196;47.422;9.656;2023-11-19T12:46:45;0.83;;;0.70;;
4365;SDS011;2196;47.422;9.656;2023-11-19T12:49:12;0.50;;;0.50;;
4365;SDS011;2196;47.422;9.656;2023-11-19T12:51:39;1.37;;;0.40;;
4365;SDS011;2196;47.422;9.656;2023-11-19T12:54:06;0.80;;;0.63;;
4365;SDS011;2196;47.422;9.656;2023-11-19T12:56:38;0.73;;;0.73;;
4365;SDS011;2196;47.422;9.656;2023-11-19T12:59:10;0.63;;;0.63;;
4365;SDS011;2196;47.422;9.656;2023-11-19T13:01:38;0.90;;;0.90;;
4365;SDS011;2196;47.422;9.656;2023-11-19T13:04:15;1.70;;;0.77;;
4365;SDS011;2196;47.422;9.656;2023-11-19T13:06:44;1.60;;;1.40;;
4365;SDS011;2196;47.422;9.656;2023-11-19T13:09:21;3.80;;;2.27;;
4365;SDS011;2196;47.422;9.656;2023-11-19T13:11:50;3.07;;;1.50;;
4365;SDS011;2196;47.422;9.656;2023-11-19T13:14:17;3.37;;;2.50;;
4365;SDS011;2196;47.422;9.656;2023-11-19T13:16:45;6.60;;;4.60;;
4365;SDS011;2196;47.422;9.656;2023-11-19T13:19:12;2.00;;;1.90;;
4365;SDS011;2196;47.422;9.656;2023-11-19T13:21:39;2.40;;;2.20;;
4365;SDS011;2196;47.422;9.656;2023-11-19T13:24:06;3.33;;;2.63;;
4365;SDS011;2196;47.422;9.656;2023-11-19T13:26:33;3.27;;;2.13;;
4365;SDS011;2196;47.422;9.656;2023-11-19T13:29:06;2.17;;;1.90;;
4365;SDS011;2196;47.422;9.656;2023-11-19T13:31:36;2.47;;;2.37;;
4365;SDS011;2196;47.422;9.656;2023-11-19T13:34:03;2.10;;;1.90;;
4365;SDS011;2196;47.422;9.656;2023-11-19T13:36:33;2.50;;;1.40;;
4365;SDS011;2196;47.422;9.656;2023-11-19T13:39:00;1.57;;;1.50;;
4365;SDS011;2196;47.422;9.656;2023-11-19T13:41:27;1.37;;;1.37;;
4365;SDS011;2196;47.422;9.656;2023-11-19T13:43:54;1.73;;;1.60;;
4365;SDS011;2196;47.422;9.656;2023-11-19T13:46:23;1.70;;;1.60;;
4365;SDS011;2196;47.422;9.656;2023-11-19T13:48:49;1.80;;;1.70;;
4365;SDS011;2196;47.422;9.656;2023-11-19T13:51:16;1.63;;;1.53;;
4365;SDS011;2196;47.422;9.656;2023-11-19T13:53:44;2.30;;;2.10;;
4365;SDS011;2196;47.422;9.656;2023-11-19T13:56:11;1.50;;;1.40;;
4365;SDS011;2196;47.422;9.656;2023-11-19T13:58:38;1.33;;;1.23;;
4365;SDS011;2196;47.422;9.656;2023-11-19T14:01:06;1.67;;;1.57;;
4365;SDS011;2196;47.422;9.656;2023-11-19T14:03:35;1.60;;;1.60;;
4365;SDS011;2196;47.422;9.656;2023-11-19T14:06:01;1.80;;;1.70;;
4365;SDS011;2196;47.422;9.656;2023-11-19T14:08:29;1.93;;;1.83;;
4365;SDS011;2196;47.422;9.656;2023-11-19T14:10:56;1.23;;;1.17;;
4365;SDS011;2196;47.422;9.656;2023-11-19T14:13:23;0.87;;;0.87;;
4365;SDS011;2196;47.422;9.656;2023-11-19T14:15:50;0.53;;;0.53;;
4365;SDS011;2196;47.422;9.656;2023-11-19T14:18:17;2.50;;;0.80;;
4365;SDS011;2196;47.422;9.656;2023-11-19T14:20:46;1.93;;;1.03;;
4365;SDS011;2196;47.422;9.656;2023-11-19T14:23:13;1.07;;;0.70;;
4365;SDS011;2196;47.422;9.656;2023-11-19T14:25:40;1.27;;;0.93;;
4365;SDS011;2196;47.422;9.656;2023-11-19T14:28:07;1.17;;;0.87;;
4365;SDS011;2196;47.422;9.656;2023-11-19T14:30:34;1.17;;;1.17;;
4365;SDS011;2196;47.422;9.656;2023-11-19T14:33:00;2.27;;;2.07;;
4365;SDS011;2196;47.422;9.656;2023-11-19T14:35:28;2.63;;;2.23;;
4365;SDS011;2196;47.422;9.656;2023-11-19T14:37:59;1.30;;;1.30;;
4365;SDS011;2196;47.422;9.656;2023-11-19T14:40:29;1.63;;;1.53;;
4365;SDS011;2196;47.422;9.656;2023-11-19T14:42:56;3.00;;;2.80;;
4365;SDS011;2196;47.422;9.656;2023-11-19T14:45:23;4.17;;;3.17;;
4365;SDS011;2196;47.422;9.656;2023-11-19T14:47:51;2.37;;;2.27;;
4365;SDS011;2196;47.422;9.656;2023-11-19T14:50:19;3.77;;;2.77;;
4365;SDS011;2196;47.422;9.656;2023-11-19T14:52:46;3.37;;;1.53;;
4365;SDS011;2196;47.422;9.656;2023-11-19T14:55:14;2.20;;;2.10;;
4365;SDS011;2196;47.422;9.656;2023-11-19T14:57:41;2.10;;;2.07;;
4365;SDS011;2196;47.422;9.656;2023-11-19T15:00:09;2.33;;;2.23;;
4365;SDS011;2196;47.422;9.656;2023-11-19T15:02:39;2.53;;;2.33;;
4365;SDS011;2196;47.422;9.656;2023-11-19T15:05:07;2.20;;;2.00;;
4365;SDS011;2196;47.422;9.656;2023-11-19T15:07:35;2.67;;;2.47;;
4365;SDS011;2196;47.422;9.656;2023-11-19T15:10:03;4.67;;;4.13;;
4365;SDS011;2196;47.422;9.656;2023-11-19T15:12:35;3.63;;;3.33;;
4365;SDS011;2196;47.422;9.656;2023-11-19T15:15:05;3.53;;;3.23;;
4365;SDS011;2196;47.422;9.656;2023-11-19T15:17:38;3.47;;;3.13;;
4365;SDS011;2196;47.422;9.656;2023-11-19T15:20:06;3.23;;;3.00;;
4365;SDS011;2196;47.422;9.656;2023-11-19T15:22:33;4.43;;;3.70;;
4365;SDS011;2196;47.422;9.656;2023-11-19T15:25:00;5.57;;;5.03;;